sensor_id;sensor_type;location;lat;lon;timestamp;P1;durP1;ratioP1;P2;durP2;ratioP2
39994;SDS011;25686;51.908;10.418;2022-11-14T00:00:44;44.60;;;19.83;;
39994;SDS011;25686;51.908;10.418;2022-11-14T00:02:45;39.53;;;18.93;;
39994;SDS011;25686;51.908;10.418;2022-11-14T00:04:46;41.97;;;18.13;;
39994;SDS011;25686;51.908;10.418;2022-11-14T00:06:47;42.73;;;20.30;;
39994;SDS011;25686;51.908;10.418;2022-11-14T00:08:48;43.90;;;21.07;;
39994;SDS011;25686;51.908;10.418;2022-11-14T00:10:49;52.80;;;22.00;;
39994;SDS011;25686;51.908;10.418;2022-11-14T00:12:51;45.70;;;20.83;;
39994;SDS011;25686;51.908;10.418;2022-11-14T00:14:51;49.03;;;21.67;;
39994;SDS011;25686;51.908;10.418;2022-11-14T00:16:54;51.07;;;22.40;;
39994;SDS011;25686;51.908;10.418;2022-11-14T00:18:55;52.00;;;22.77;;
39994;SDS011;25686;51.908;10.418;2022-11-14T00:20:56;67.40;;;23.67;;
39994;SDS011;25686;51.908;10.418;2022-11-14T00:22:57;71.70;;;23.23;;
39994;SDS011;25686;51.908;10.418;2022-11-14T00:24:58;67.23;;;24.57;;
39994;SDS011;25686;51.908;10.418;2022-11-14T00:26:59;76.47;;;23.63;;
39994;SDS011;25686;51.908;10.418;2022-11-14T00:29:00;79.80;;;23.20;;
39994;SDS011;25686;51.908;10.418;2022-11-14T00:31:01;72.83;;;25.40;;
39994;SDS011;25686;51.908;10.418;2022-11-14T00:33:02;75.40;;;25.43;;
39994;SDS011;25686;51.908;10.418;2022-11-14T00:35:03;70.87;;;25.37;;
39994;SDS011;25686;51.908;10.418;2022-11-14T00:37:04;68.03;;;25.80;;
39994;SDS011;25686;51.908;10.418;2022-11-14T00:39:05;73.87;;;23.77;;
39994;SDS011;25686;51.908;10.418;2022-11-14T00:41:06;106.17;;;25.50;;
39994;SDS011;25686;51.908;10.418;2022-11-14T00:43:07;80.70;;;25.13;;
39994;SDS011;25686;51.908;10.418;2022-11-14T00:45:08;73.90;;;24.20;;
39994;SDS011;25686;51.908;10.418;2022-11-14T00:47:09;129.80;;;24.63;;
39994;SDS011;25686;51.908;10.418;2022-11-14T00:49:10;73.10;;;24.47;;
39994;SDS011;25686;51.908;10.418;2022-11-14T00:51:11;71.93;;;24.83;;
39994;SDS011;25686;51.908;10.418;2022-11-14T00:53:12;104.70;;;23.97;;
39994;SDS011;25686;51.908;10.418;2022-11-14T00:55:13;65.60;;;24.67;;
39994;SDS011;25686;51.908;10.418;2022-11-14T00:57:14;102.10;;;23.50;;
39994;SDS011;25686;51.908;10.418;2022-11-14T00:59:15;110.63;;;22.80;;
39994;SDS011;25686;51.908;10.418;2022-11-14T01:01:16;95.20;;;23.13;;
39994;SDS011;25686;51.908;10.418;2022-11-14T01:03:17;86.33;;;24.23;;
39994;SDS011;25686;51.908;10.418;2022-11-14T01:05:19;72.47;;;24.83;;
39994;SDS011;25686;51.908;10.418;2022-11-14T01:07:20;73.53;;;25.23;;
39994;SDS011;25686;51.908;10.418;2022-11-14T01:09:21;95.47;;;25.67;;
39994;SDS011;25686;51.908;10.418;2022-11-14T01:11:22;103.37;;;24.17;;
39994;SDS011;25686;51.908;10.418;2022-11-14T01:13:23;87.50;;;22.77;;
39994;SDS011;25686;51.908;10.418;2022-11-14T01:15:24;58.10;;;21.13;;
39994;SDS011;25686;51.908;10.418;2022-11-14T01:17:25;68.10;;;22.50;;
39994;SDS011;25686;51.908;10.418;2022-11-14T01:19:27;83.10;;;21.27;;
39994;SDS011;25686;51.908;10.418;2022-11-14T01:21:28;75.37;;;21.67;;
39994;SDS011;25686;51.908;10.418;2022-11-14T01:23:29;75.00;;;23.37;;
39994;SDS011;25686;51.908;10.418;2022-11-14T01:25:31;62.63;;;22.20;;
39994;SDS011;25686;51.908;10.418;2022-11-14T01:27:32;89.73;;;22.40;;
39994;SDS011;25686;51.908;10.418;2022-11-14T01:29:33;55.13;;;22.23;;
39994;SDS011;25686;51.908;10.418;2022-11-14T01:31:34;60.13;;;20.63;;
39994;SDS011;25686;51.908;10.418;2022-11-14T01:33:35;77.00;;;20.73;;
39994;SDS011;25686;51.908;10.418;2022-11-14T01:35:37;54.23;;;20.13;;
39994;SDS011;25686;51.908;10.418;2022-11-14T01:37:38;87.17;;;21.43;;
39994;SDS011;25686;51.908;10.418;2022-11-14T01:39:39;60.87;;;21.93;;
39994;SDS011;25686;51.908;10.418;2022-11-14T01:41:40;59.23;;;22.00;;
39994;SDS011;25686;51.908;10.418;2022-11-14T01:43:41;50.73;;;20.47;;
39994;SDS011;25686;51.908;10.418;2022-11-14T01:45:52;63.57;;;21.10;;
39994;SDS011;25686;51.908;10.418;2022-11-14T01:47:53;109.50;;;20.77;;
39994;SDS011;25686;51.908;10.418;2022-11-14T01:49:56;65.73;;;22.00;;
39994;SDS011;25686;51.908;10.418;2022-11-14T01:53:59;69.50;;;20.53;;
39994;SDS011;25686;51.908;10.418;2022-11-14T01:56:02;101.63;;;20.73;;
39994;SDS011;25686;51.908;10.418;2022-11-14T01:58:04;63.23;;;20.67;;
39994;SDS011;25686;51.908;10.418;2022-11-14T02:00:06;75.17;;;20.83;;
39994;SDS011;25686;51.908;10.418;2022-11-14T02:02:09;54.70;;;22.30;;
39994;SDS011;25686;51.908;10.418;2022-11-14T02:04:14;55.60;;;21.63;;
39994;SDS011;25686;51.908;10.418;2022-11-14T02:06:17;70.07;;;21.60;;
39994;SDS011;25686;51.908;10.418;2022-11-14T02:08:19;74.53;;;21.57;;
39994;SDS011;25686;51.908;10.418;2022-11-14T02:10:20;62.30;;;21.13;;
39994;SDS011;25686;51.908;10.418;2022-11-14T02:12:21;64.03;;;21.73;;
39994;SDS011;25686;51.908;10.418;2022-11-14T02:14:23;55.83;;;21.03;;
39994;SDS011;25686;51.908;10.418;2022-11-14T02:16:24;57.23;;;21.57;;
39994;SDS011;25686;51.908;10.418;2022-11-14T02:18:25;61.97;;;22.00;;
39994;SDS011;25686;51.908;10.418;2022-11-14T02:20:27;59.60;;;22.13;;
39994;SDS011;25686;51.908;10.418;2022-11-14T02:22:31;68.33;;;20.93;;
39994;SDS011;25686;51.908;10.418;2022-11-14T02:24:32;54.43;;;20.23;;
39994;SDS011;25686;51.908;10.418;2022-11-14T02:26:33;73.37;;;21.23;;
39994;SDS011;25686;51.908;10.418;2022-11-14T02:28:34;59.43;;;21.60;;
39994;SDS011;25686;51.908;10.418;2022-11-14T02:30:35;59.10;;;20.20;;
39994;SDS011;25686;51.908;10.418;2022-11-14T02:32:36;76.70;;;22.00;;
39994;SDS011;25686;51.908;10.418;2022-11-14T02:34:37;57.90;;;21.53;;
39994;SDS011;25686;51.908;10.418;2022-11-14T02:36:38;90.00;;;22.80;;
39994;SDS011;25686;51.908;10.418;2022-11-14T02:38:39;78.70;;;22.73;;
39994;SDS011;25686;51.908;10.418;2022-11-14T02:40:40;68.73;;;21.20;;
39994;SDS011;25686;51.908;10.418;2022-11-14T02:42:41;72.33;;;20.30;;
39994;SDS011;25686;51.908;10.418;2022-11-14T02:44:42;89.73;;;21.07;;
39994;SDS011;25686;51.908;10.418;2022-11-14T02:46:43;69.80;;;20.07;;
39994;SDS011;25686;51.908;10.418;2022-11-14T02:48:44;79.37;;;20.60;;
39994;SDS011;25686;51.908;10.418;2022-11-14T02:50:47;71.30;;;19.73;;
39994;SDS011;25686;51.908;10.418;2022-11-14T02:52:48;68.57;;;19.97;;
39994;SDS011;25686;51.908;10.418;2022-11-14T02:54:49;49.37;;;20.87;;
39994;SDS011;25686;51.908;10.418;2022-11-14T02:56:49;77.50;;;19.37;;
39994;SDS011;25686;51.908;10.418;2022-11-14T02:58:50;53.50;;;20.77;;
39994;SDS011;25686;51.908;10.418;2022-11-14T03:00:51;52.53;;;19.90;;
39994;SDS011;25686;51.908;10.418;2022-11-14T03:02:52;47.93;;;20.50;;
39994;SDS011;25686;51.908;10.418;2022-11-14T03:04:53;44.47;;;19.47;;
39994;SDS011;25686;51.908;10.418;2022-11-14T03:06:54;45.63;;;17.77;;
39994;SDS011;25686;51.908;10.418;2022-11-14T03:08:55;38.63;;;18.23;;
39994;SDS011;25686;51.908;10.418;2022-11-14T03:10:58;53.17;;;17.83;;
39994;SDS011;25686;51.908;10.418;2022-11-14T03:13:02;51.10;;;18.20;;
39994;SDS011;25686;51.908;10.418;2022-11-14T03:15:04;48.47;;;17.63;;
39994;SDS011;25686;51.908;10.418;2022-11-14T03:17:05;42.10;;;18.07;;
39994;SDS011;25686;51.908;10.418;2022-11-14T03:19:06;36.63;;;17.00;;
39994;SDS011;25686;51.908;10.418;2022-11-14T03:21:12;51.57;;;17.00;;
39994;SDS011;25686;51.908;10.418;2022-11-14T03:23:13;47.23;;;17.43;;
39994;SDS011;25686;51.908;10.418;2022-11-14T03:25:14;59.17;;;17.37;;
39994;SDS011;25686;51.908;10.418;2022-11-14T03:27:15;77.17;;;19.27;;
39994;SDS011;25686;51.908;10.418;2022-11-14T03:29:16;72.13;;;19.80;;
39994;SDS011;25686;51.908;10.418;2022-11-14T03:31:16;53.50;;;18.53;;
39994;SDS011;25686;51.908;10.418;2022-11-14T03:33:17;58.93;;;19.77;;
39994;SDS011;25686;51.908;10.418;2022-11-14T03:35:18;61.37;;;20.87;;
39994;SDS011;25686;51.908;10.418;2022-11-14T03:37:19;51.23;;;19.67;;
39994;SDS011;25686;51.908;10.418;2022-11-14T03:39:20;58.53;;;20.57;;
39994;SDS011;25686;51.908;10.418;2022-11-14T03:41:21;74.23;;;19.50;;
39994;SDS011;25686;51.908;10.418;2022-11-14T03:43:22;77.27;;;20.50;;
39994;SDS011;25686;51.908;10.418;2022-11-14T03:45:23;71.47;;;21.30;;
39994;SDS011;25686;51.908;10.418;2022-11-14T03:47:24;72.60;;;20.77;;
39994;SDS011;25686;51.908;10.418;2022-11-14T03:49:25;102.83;;;21.70;;
39994;SDS011;25686;51.908;10.418;2022-11-14T03:51:26;58.93;;;22.27;;
39994;SDS011;25686;51.908;10.418;2022-11-14T03:53:27;64.77;;;22.77;;
39994;SDS011;25686;51.908;10.418;2022-11-14T03:55:28;98.17;;;22.63;;
39994;SDS011;25686;51.908;10.418;2022-11-14T03:57:29;56.93;;;20.93;;
39994;SDS011;25686;51.908;10.418;2022-11-14T03:59:30;68.23;;;22.07;;
39994;SDS011;25686;51.908;10.418;2022-11-14T04:01:31;122.67;;;22.73;;
39994;SDS011;25686;51.908;10.418;2022-11-14T04:03:32;79.03;;;23.17;;
39994;SDS011;25686;51.908;10.418;2022-11-14T04:05:33;68.47;;;21.30;;
39994;SDS011;25686;51.908;10.418;2022-11-14T04:07:33;58.40;;;21.37;;
39994;SDS011;25686;51.908;10.418;2022-11-14T04:09:34;114.37;;;21.37;;
39994;SDS011;25686;51.908;10.418;2022-11-14T04:11:35;77.97;;;21.07;;
39994;SDS011;25686;51.908;10.418;2022-11-14T04:13:36;74.70;;;21.67;;
39994;SDS011;25686;51.908;10.418;2022-11-14T04:15:37;72.13;;;22.57;;
39994;SDS011;25686;51.908;10.418;2022-11-14T04:17:38;88.13;;;22.77;;
39994;SDS011;25686;51.908;10.418;2022-11-14T04:19:39;74.83;;;22.80;;
39994;SDS011;25686;51.908;10.418;2022-11-14T04:21:40;91.50;;;22.33;;
39994;SDS011;25686;51.908;10.418;2022-11-14T04:23:41;129.03;;;21.73;;
39994;SDS011;25686;51.908;10.418;2022-11-14T04:25:42;124.90;;;20.13;;
39994;SDS011;25686;51.908;10.418;2022-11-14T04:27:44;93.07;;;21.70;;
39994;SDS011;25686;51.908;10.418;2022-11-14T04:29:44;85.70;;;20.73;;
39994;SDS011;25686;51.908;10.418;2022-11-14T04:31:45;80.90;;;21.10;;
39994;SDS011;25686;51.908;10.418;2022-11-14T04:33:46;85.47;;;20.83;;
39994;SDS011;25686;51.908;10.418;2022-11-14T04:35:47;140.93;;;21.60;;
39994;SDS011;25686;51.908;10.418;2022-11-14T04:37:48;101.00;;;22.00;;
39994;SDS011;25686;51.908;10.418;2022-11-14T04:39:49;122.63;;;22.23;;
39994;SDS011;25686;51.908;10.418;2022-11-14T04:41:50;152.53;;;21.00;;
39994;SDS011;25686;51.908;10.418;2022-11-14T04:43:51;118.23;;;21.87;;
39994;SDS011;25686;51.908;10.418;2022-11-14T04:45:52;93.73;;;21.03;;
39994;SDS011;25686;51.908;10.418;2022-11-14T04:47:53;105.80;;;22.30;;
39994;SDS011;25686;51.908;10.418;2022-11-14T04:49:54;63.33;;;21.10;;
39994;SDS011;25686;51.908;10.418;2022-11-14T04:51:55;96.43;;;22.17;;
39994;SDS011;25686;51.908;10.418;2022-11-14T04:53:56;67.93;;;21.30;;
39994;SDS011;25686;51.908;10.418;2022-11-14T04:55:57;85.83;;;21.47;;
39994;SDS011;25686;51.908;10.418;2022-11-14T04:57:58;62.57;;;20.27;;
39994;SDS011;25686;51.908;10.418;2022-11-14T04:59:59;94.97;;;21.13;;
39994;SDS011;25686;51.908;10.418;2022-11-14T05:02:00;104.40;;;21.67;;
39994;SDS011;25686;51.908;10.418;2022-11-14T05:04:01;163.93;;;21.03;;
39994;SDS011;25686;51.908;10.418;2022-11-14T05:06:02;125.63;;;21.90;;
39994;SDS011;25686;51.908;10.418;2022-11-14T05:08:03;144.07;;;22.07;;
39994;SDS011;25686;51.908;10.418;2022-11-14T05:10:04;113.20;;;21.23;;
39994;SDS011;25686;51.908;10.418;2022-11-14T05:12:05;92.30;;;19.70;;
39994;SDS011;25686;51.908;10.418;2022-11-14T05:14:06;87.20;;;21.60;;
39994;SDS011;25686;51.908;10.418;2022-11-14T05:16:07;79.30;;;21.27;;
39994;SDS011;25686;51.908;10.418;2022-11-14T05:18:08;91.93;;;21.90;;
39994;SDS011;25686;51.908;10.418;2022-11-14T05:20:09;122.37;;;23.00;;
39994;SDS011;25686;51.908;10.418;2022-11-14T05:22:10;72.17;;;22.23;;
39994;SDS011;25686;51.908;10.418;2022-11-14T05:24:11;102.63;;;24.67;;
39994;SDS011;25686;51.908;10.418;2022-11-14T05:26:14;111.67;;;25.03;;
39994;SDS011;25686;51.908;10.418;2022-11-14T05:28:15;92.20;;;24.97;;
39994;SDS011;25686;51.908;10.418;2022-11-14T05:30:16;63.77;;;24.33;;
39994;SDS011;25686;51.908;10.418;2022-11-14T05:32:17;109.17;;;25.93;;
39994;SDS011;25686;51.908;10.418;2022-11-14T05:34:18;112.07;;;25.37;;
39994;SDS011;25686;51.908;10.418;2022-11-14T05:36:19;153.13;;;23.53;;
39994;SDS011;25686;51.908;10.418;2022-11-14T05:38:20;185.83;;;24.33;;
39994;SDS011;25686;51.908;10.418;2022-11-14T05:40:21;478.80;;;27.50;;
39994;SDS011;25686;51.908;10.418;2022-11-14T05:42:22;160.67;;;26.63;;
39994;SDS011;25686;51.908;10.418;2022-11-14T05:44:22;299.70;;;27.00;;
39994;SDS011;25686;51.908;10.418;2022-11-14T05:46:23;347.93;;;27.87;;
39994;SDS011;25686;51.908;10.418;2022-11-14T05:48:24;112.20;;;28.00;;
39994;SDS011;25686;51.908;10.418;2022-11-14T05:50:25;374.90;;;28.87;;
39994;SDS011;25686;51.908;10.418;2022-11-14T05:52:26;105.07;;;25.43;;
39994;SDS011;25686;51.908;10.418;2022-11-14T05:54:27;86.93;;;24.73;;
39994;SDS011;25686;51.908;10.418;2022-11-14T05:56:28;115.90;;;26.07;;
39994;SDS011;25686;51.908;10.418;2022-11-14T05:58:30;101.03;;;25.60;;
39994;SDS011;25686;51.908;10.418;2022-11-14T06:00:31;100.93;;;25.63;;
39994;SDS011;25686;51.908;10.418;2022-11-14T06:02:32;91.90;;;26.50;;
39994;SDS011;25686;51.908;10.418;2022-11-14T06:04:32;89.53;;;26.97;;
39994;SDS011;25686;51.908;10.418;2022-11-14T06:06:33;169.00;;;25.47;;
39994;SDS011;25686;51.908;10.418;2022-11-14T06:08:35;91.17;;;25.33;;
39994;SDS011;25686;51.908;10.418;2022-11-14T06:10:36;109.27;;;24.97;;
39994;SDS011;25686;51.908;10.418;2022-11-14T06:12:37;113.70;;;23.93;;
39994;SDS011;25686;51.908;10.418;2022-11-14T06:14:37;138.20;;;23.90;;
39994;SDS011;25686;51.908;10.418;2022-11-14T06:16:38;95.73;;;24.60;;
39994;SDS011;25686;51.908;10.418;2022-11-14T06:18:39;119.40;;;24.47;;
39994;SDS011;25686;51.908;10.418;2022-11-14T06:20:40;172.23;;;26.20;;
39994;SDS011;25686;51.908;10.418;2022-11-14T06:22:41;179.83;;;24.73;;
39994;SDS011;25686;51.908;10.418;2022-11-14T06:24:42;102.17;;;25.67;;
39994;SDS011;25686;51.908;10.418;2022-11-14T06:26:43;128.80;;;25.53;;
39994;SDS011;25686;51.908;10.418;2022-11-14T06:28:44;101.40;;;24.50;;
39994;SDS011;25686;51.908;10.418;2022-11-14T06:30:45;132.17;;;25.13;;
39994;SDS011;25686;51.908;10.418;2022-11-14T06:32:46;89.60;;;24.93;;
39994;SDS011;25686;51.908;10.418;2022-11-14T06:34:47;158.87;;;27.13;;
39994;SDS011;25686;51.908;10.418;2022-11-14T06:36:48;93.50;;;26.63;;
39994;SDS011;25686;51.908;10.418;2022-11-14T06:38:49;116.50;;;26.77;;
39994;SDS011;25686;51.908;10.418;2022-11-14T06:40:50;156.57;;;26.93;;
39994;SDS011;25686;51.908;10.418;2022-11-14T06:42:53;99.07;;;25.93;;
39994;SDS011;25686;51.908;10.418;2022-11-14T06:44:55;85.43;;;26.53;;
39994;SDS011;25686;51.908;10.418;2022-11-14T06:46:55;112.43;;;24.53;;
39994;SDS011;25686;51.908;10.418;2022-11-14T06:48:56;70.37;;;25.70;;
39994;SDS011;25686;51.908;10.418;2022-11-14T06:50:58;182.50;;;27.13;;
39994;SDS011;25686;51.908;10.418;2022-11-14T06:52:59;167.53;;;27.30;;
39994;SDS011;25686;51.908;10.418;2022-11-14T06:55:00;112.60;;;26.87;;
39994;SDS011;25686;51.908;10.418;2022-11-14T06:57:01;164.00;;;25.07;;
39994;SDS011;25686;51.908;10.418;2022-11-14T06:59:02;200.23;;;25.20;;
39994;SDS011;25686;51.908;10.418;2022-11-14T07:01:12;99.33;;;23.67;;
39994;SDS011;25686;51.908;10.418;2022-11-14T07:03:13;72.17;;;24.67;;
39994;SDS011;25686;51.908;10.418;2022-11-14T07:05:14;68.77;;;23.03;;
39994;SDS011;25686;51.908;10.418;2022-11-14T07:07:15;75.03;;;24.17;;
39994;SDS011;25686;51.908;10.418;2022-11-14T07:09:16;66.87;;;24.37;;
39994;SDS011;25686;51.908;10.418;2022-11-14T07:11:18;73.07;;;23.87;;
39994;SDS011;25686;51.908;10.418;2022-11-14T07:13:22;89.50;;;25.57;;
39994;SDS011;25686;51.908;10.418;2022-11-14T07:15:23;82.93;;;24.03;;
39994;SDS011;25686;51.908;10.418;2022-11-14T07:17:24;116.60;;;24.47;;
39994;SDS011;25686;51.908;10.418;2022-11-14T07:19:25;75.27;;;25.67;;
39994;SDS011;25686;51.908;10.418;2022-11-14T07:21:27;77.03;;;24.30;;
39994;SDS011;25686;51.908;10.418;2022-11-14T07:23:29;73.03;;;23.83;;
39994;SDS011;25686;51.908;10.418;2022-11-14T07:25:30;68.33;;;24.37;;
39994;SDS011;25686;51.908;10.418;2022-11-14T07:27:31;205.40;;;24.70;;
39994;SDS011;25686;51.908;10.418;2022-11-14T07:29:32;85.30;;;25.23;;
39994;SDS011;25686;51.908;10.418;2022-11-14T07:31:33;73.13;;;25.40;;
39994;SDS011;25686;51.908;10.418;2022-11-14T07:33:34;174.80;;;24.97;;
39994;SDS011;25686;51.908;10.418;2022-11-14T07:35:37;206.60;;;26.77;;
39994;SDS011;25686;51.908;10.418;2022-11-14T07:37:38;87.73;;;26.10;;
39994;SDS011;25686;51.908;10.418;2022-11-14T07:39:39;211.20;;;26.10;;
39994;SDS011;25686;51.908;10.418;2022-11-14T07:41:40;332.67;;;25.50;;
39994;SDS011;25686;51.908;10.418;2022-11-14T07:43:41;113.73;;;26.43;;
39994;SDS011;25686;51.908;10.418;2022-11-14T07:45:42;129.23;;;27.00;;
39994;SDS011;25686;51.908;10.418;2022-11-14T07:47:43;116.57;;;26.20;;
39994;SDS011;25686;51.908;10.418;2022-11-14T07:49:44;108.63;;;26.00;;
39994;SDS011;25686;51.908;10.418;2022-11-14T07:51:45;89.97;;;25.30;;
39994;SDS011;25686;51.908;10.418;2022-11-14T07:53:46;109.53;;;26.83;;
39994;SDS011;25686;51.908;10.418;2022-11-14T07:55:47;76.17;;;26.97;;
39994;SDS011;25686;51.908;10.418;2022-11-14T07:57:51;71.93;;;27.07;;
39994;SDS011;25686;51.908;10.418;2022-11-14T07:59:52;138.93;;;26.53;;
39994;SDS011;25686;51.908;10.418;2022-11-14T08:01:53;247.37;;;26.17;;
39994;SDS011;25686;51.908;10.418;2022-11-14T08:03:54;99.53;;;26.03;;
39994;SDS011;25686;51.908;10.418;2022-11-14T08:08:05;93.37;;;26.13;;
39994;SDS011;25686;51.908;10.418;2022-11-14T08:10:06;107.27;;;24.77;;
39994;SDS011;25686;51.908;10.418;2022-11-14T08:12:07;71.87;;;26.27;;
39994;SDS011;25686;51.908;10.418;2022-11-14T08:14:08;90.67;;;28.00;;
39994;SDS011;25686;51.908;10.418;2022-11-14T08:16:09;90.93;;;25.33;;
39994;SDS011;25686;51.908;10.418;2022-11-14T08:18:10;143.53;;;24.13;;
39994;SDS011;25686;51.908;10.418;2022-11-14T08:20:11;108.90;;;25.50;;
39994;SDS011;25686;51.908;10.418;2022-11-14T08:22:12;85.47;;;26.07;;
39994;SDS011;25686;51.908;10.418;2022-11-14T08:24:13;69.37;;;25.43;;
39994;SDS011;25686;51.908;10.418;2022-11-14T08:26:14;198.47;;;25.67;;
39994;SDS011;25686;51.908;10.418;2022-11-14T08:28:15;109.87;;;25.23;;
39994;SDS011;25686;51.908;10.418;2022-11-14T08:30:16;61.63;;;25.27;;
39994;SDS011;25686;51.908;10.418;2022-11-14T08:32:17;203.53;;;24.37;;
39994;SDS011;25686;51.908;10.418;2022-11-14T08:34:18;66.40;;;24.27;;
39994;SDS011;25686;51.908;10.418;2022-11-14T08:36:21;62.50;;;25.63;;
39994;SDS011;25686;51.908;10.418;2022-11-14T08:38:22;74.87;;;24.33;;
39994;SDS011;25686;51.908;10.418;2022-11-14T08:40:24;60.30;;;25.83;;
39994;SDS011;25686;51.908;10.418;2022-11-14T08:42:25;64.50;;;25.03;;
39994;SDS011;25686;51.908;10.418;2022-11-14T08:44:26;61.83;;;25.47;;
39994;SDS011;25686;51.908;10.418;2022-11-14T08:46:27;64.63;;;25.43;;
39994;SDS011;25686;51.908;10.418;2022-11-14T08:48:28;65.83;;;25.33;;
39994;SDS011;25686;51.908;10.418;2022-11-14T08:50:29;108.93;;;24.20;;
39994;SDS011;25686;51.908;10.418;2022-11-14T08:52:31;82.57;;;24.13;;
39994;SDS011;25686;51.908;10.418;2022-11-14T08:54:32;49.83;;;23.93;;
39994;SDS011;25686;51.908;10.418;2022-11-14T08:56:33;61.03;;;22.70;;
39994;SDS011;25686;51.908;10.418;2022-11-14T08:58:34;81.43;;;23.80;;
39994;SDS011;25686;51.908;10.418;2022-11-14T09:00:35;112.63;;;23.50;;
39994;SDS011;25686;51.908;10.418;2022-11-14T09:02:36;122.53;;;23.43;;
39994;SDS011;25686;51.908;10.418;2022-11-14T09:04:37;40.63;;;21.30;;
39994;SDS011;25686;51.908;10.418;2022-11-14T09:06:38;57.20;;;21.93;;
39994;SDS011;25686;51.908;10.418;2022-11-14T09:08:39;45.47;;;22.03;;
39994;SDS011;25686;51.908;10.418;2022-11-14T09:10:40;67.83;;;22.47;;
39994;SDS011;25686;51.908;10.418;2022-11-14T09:12:41;103.60;;;22.93;;
39994;SDS011;25686;51.908;10.418;2022-11-14T09:14:42;42.77;;;21.17;;
39994;SDS011;25686;51.908;10.418;2022-11-14T09:16:43;52.67;;;21.53;;
39994;SDS011;25686;51.908;10.418;2022-11-14T09:18:43;46.33;;;21.77;;
39994;SDS011;25686;51.908;10.418;2022-11-14T09:20:44;37.70;;;20.30;;
39994;SDS011;25686;51.908;10.418;2022-11-14T09:22:45;38.60;;;20.07;;
39994;SDS011;25686;51.908;10.418;2022-11-14T09:24:46;37.63;;;20.03;;
39994;SDS011;25686;51.908;10.418;2022-11-14T09:26:49;41.50;;;19.67;;
39994;SDS011;25686;51.908;10.418;2022-11-14T09:28:51;40.40;;;20.27;;
39994;SDS011;25686;51.908;10.418;2022-11-14T09:30:52;40.50;;;21.63;;
39994;SDS011;25686;51.908;10.418;2022-11-14T09:32:57;67.90;;;22.60;;
39994;SDS011;25686;51.908;10.418;2022-11-14T09:34:58;63.20;;;22.43;;
39994;SDS011;25686;51.908;10.418;2022-11-14T09:36:59;43.10;;;21.40;;
39994;SDS011;25686;51.908;10.418;2022-11-14T09:39:00;46.47;;;22.27;;
39994;SDS011;25686;51.908;10.418;2022-11-14T09:45:28;53.77;;;22.53;;
39994;SDS011;25686;51.908;10.418;2022-11-14T09:47:37;57.33;;;22.43;;
39994;SDS011;25686;51.908;10.418;2022-11-14T09:49:40;45.90;;;21.90;;
39994;SDS011;25686;51.908;10.418;2022-11-14T09:51:46;47.47;;;22.40;;
39994;SDS011;25686;51.908;10.418;2022-11-14T09:55:52;38.70;;;20.70;;
39994;SDS011;25686;51.908;10.418;2022-11-14T09:57:53;44.83;;;21.37;;
39994;SDS011;25686;51.908;10.418;2022-11-14T09:59:55;41.87;;;22.07;;
39994;SDS011;25686;51.908;10.418;2022-11-14T10:01:57;43.60;;;20.97;;
39994;SDS011;25686;51.908;10.418;2022-11-14T10:08:19;41.20;;;22.50;;
39994;SDS011;25686;51.908;10.418;2022-11-14T10:19:43;47.00;;;21.87;;
39994;SDS011;25686;51.908;10.418;2022-11-14T10:26:26;47.73;;;22.60;;
39994;SDS011;25686;51.908;10.418;2022-11-14T10:28:41;47.27;;;23.03;;
39994;SDS011;25686;51.908;10.418;2022-11-14T10:30:51;41.70;;;22.73;;
39994;SDS011;25686;51.908;10.418;2022-11-14T10:33:08;62.03;;;22.53;;
39994;SDS011;25686;51.908;10.418;2022-11-14T10:39:20;45.67;;;24.10;;
39994;SDS011;25686;51.908;10.418;2022-11-14T10:41:23;45.23;;;24.17;;
39994;SDS011;25686;51.908;10.418;2022-11-14T10:43:26;42.87;;;23.87;;
39994;SDS011;25686;51.908;10.418;2022-11-14T10:45:31;41.30;;;22.57;;
39994;SDS011;25686;51.908;10.418;2022-11-14T10:47:42;48.20;;;23.83;;
39994;SDS011;25686;51.908;10.418;2022-11-14T10:49:45;42.27;;;23.30;;
39994;SDS011;25686;51.908;10.418;2022-11-14T10:51:52;47.03;;;22.80;;
39994;SDS011;25686;51.908;10.418;2022-11-14T10:54:05;50.93;;;25.03;;
39994;SDS011;25686;51.908;10.418;2022-11-14T10:56:10;45.93;;;24.13;;
39994;SDS011;25686;51.908;10.418;2022-11-14T10:58:12;40.87;;;22.53;;
39994;SDS011;25686;51.908;10.418;2022-11-14T11:00:15;56.17;;;23.00;;
39994;SDS011;25686;51.908;10.418;2022-11-14T11:02:16;53.35;;;22.80;;
39994;SDS011;25686;51.908;10.418;2022-11-14T11:06:27;47.10;;;23.50;;
39994;SDS011;25686;51.908;10.418;2022-11-14T11:08:28;53.92;;;23.75;;
39994;SDS011;25686;51.908;10.418;2022-11-14T11:10:48;43.07;;;23.07;;
39994;SDS011;25686;51.908;10.418;2022-11-14T11:13:28;44.05;;;23.40;;
39994;SDS011;25686;51.908;10.418;2022-11-14T11:15:30;41.27;;;22.13;;
39994;SDS011;25686;51.908;10.418;2022-11-14T11:17:31;42.22;;;22.52;;
39994;SDS011;25686;51.908;10.418;2022-11-14T11:19:32;38.90;;;21.73;;
39994;SDS011;25686;51.908;10.418;2022-11-14T11:21:45;46.17;;;23.00;;
39994;SDS011;25686;51.908;10.418;2022-11-14T11:23:56;42.13;;;23.13;;
39994;SDS011;25686;51.908;10.418;2022-11-14T11:25:57;41.10;;;22.60;;
39994;SDS011;25686;51.908;10.418;2022-11-14T11:28:16;45.87;;;23.87;;
39994;SDS011;25686;51.908;10.418;2022-11-14T11:30:18;39.58;;;22.67;;
39994;SDS011;25686;51.908;10.418;2022-11-14T11:32:23;46.13;;;23.30;;
39994;SDS011;25686;51.908;10.418;2022-11-14T11:34:25;44.97;;;24.03;;
39994;SDS011;25686;51.908;10.418;2022-11-14T11:36:26;42.53;;;24.90;;
39994;SDS011;25686;51.908;10.418;2022-11-14T11:38:29;41.67;;;23.33;;
39994;SDS011;25686;51.908;10.418;2022-11-14T11:40:30;43.97;;;22.55;;
39994;SDS011;25686;51.908;10.418;2022-11-14T11:44:52;41.13;;;23.45;;
39994;SDS011;25686;51.908;10.418;2022-11-14T11:46:58;43.33;;;24.48;;
39994;SDS011;25686;51.908;10.418;2022-11-14T11:49:02;47.88;;;26.38;;
39994;SDS011;25686;51.908;10.418;2022-11-14T11:51:09;49.38;;;24.73;;
39994;SDS011;25686;51.908;10.418;2022-11-14T11:53:15;45.95;;;23.67;;
39994;SDS011;25686;51.908;10.418;2022-11-14T11:55:21;67.20;;;24.95;;
39994;SDS011;25686;51.908;10.418;2022-11-14T11:57:27;229.70;;;25.25;;
39994;SDS011;25686;51.908;10.418;2022-11-14T11:59:32;46.22;;;25.20;;
39994;SDS011;25686;51.908;10.418;2022-11-14T12:01:34;43.85;;;23.63;;
39994;SDS011;25686;51.908;10.418;2022-11-14T12:03:35;44.90;;;23.88;;
39994;SDS011;25686;51.908;10.418;2022-11-14T12:05:51;40.72;;;22.83;;
39994;SDS011;25686;51.908;10.418;2022-11-14T12:08:02;47.40;;;23.08;;
39994;SDS011;25686;51.908;10.418;2022-11-14T12:10:11;42.50;;;22.17;;
39994;SDS011;25686;51.908;10.418;2022-11-14T12:14:31;41.53;;;23.95;;
39994;SDS011;25686;51.908;10.418;2022-11-14T12:31:34;42.63;;;24.55;;
39994;SDS011;25686;51.908;10.418;2022-11-14T12:33:36;45.20;;;24.85;;
39994;SDS011;25686;51.908;10.418;2022-11-14T12:35:44;47.55;;;25.88;;